»·PEaware :: N1246W KVNY-KSBA

N1246W :: KVNY-KSBA

FLIGHT INFORMATION

Flight Status: Arrived
Operator: Privately registered:
United States
More flights under this callsign
Pilot: David W. (18435)
Aircraft: CESSNA 172 SKYHAWK
(C172)
More flights by this aircraft type
Origin: KVNY Van Nuys
United States
Destination: KSBA Santa Barbara Mun
United States
More flights between these airports :: More routes between these airports
Route: FIM DEANO KWANG
File this flight plan on PilotEdge
Remarks:
Altitude:
(Current/Filed)
6,500ft
Speed:
(Current/Filed)
110kts
Departed: 05-Sep-18 02:39 PM
Arrived: 05-Sep-18 03:20 PM
Distance/Time
Traveled:
68nm/0:41
Distance/Time
To Go:
Arrived

Flight Plot

Page will automatically refresh every two minutes.

Flight plan parsing failed; only flown route is shown


Map Options




Map Legend


Flown Route
Filed Route
Departure Airport
Arrival Airport
Navaid (VOR, NDB)
Fix

Horizontal Profiles

Position Reports

Time Latitude Longitude Heading Altitude Ground
Speed
05-Sep-18 14:20 34.203809 -118.493619 90 805ft 0kts
05-Sep-18 14:21 34.203809 -118.493618 90 805ft 0kts
05-Sep-18 14:22 34.203809 -118.493616 90 805ft 0kts
05-Sep-18 14:23 34.203809 -118.493615 90 805ft 0kts
05-Sep-18 14:24 34.203809 -118.493614 90 805ft 0kts
05-Sep-18 14:25 34.203809 -118.493613 90 805ft 0kts
05-Sep-18 14:26 34.204129 -118.493373 357 805ft 0kts
05-Sep-18 14:27 34.204130 -118.493373 357 805ft 0kts
05-Sep-18 14:28 34.204131 -118.493373 357 805ft 0kts
05-Sep-18 14:29 34.204132 -118.493373 357 805ft 0kts
05-Sep-18 14:30 34.204133 -118.493374 357 805ft 0kts
05-Sep-18 14:31 34.204423 -118.493195 43 805ft 3kts
05-Sep-18 14:32 34.204533 -118.493010 115 805ft 0kts
05-Sep-18 14:33 34.205976 -118.493325 359 805ft 2kts
05-Sep-18 14:34 34.206591 -118.492013 94 805ft 1kts
05-Sep-18 14:35 34.206590 -118.492009 93 805ft 0kts
05-Sep-18 14:36 34.206590 -118.492007 93 805ft 0kts
05-Sep-18 14:37 34.206859 -118.491289 358 805ft 9kts
05-Sep-18 14:38 34.209278 -118.491552 356 805ft 10kts
05-Sep-18 14:39 34.210132 -118.491354 86 805ft 0kts
05-Sep-18 14:40 34.210176 -118.490890 84 805ft 11kts
05-Sep-18 14:41 34.202696 -118.489770 175 870ft 74kts
05-Sep-18 14:42 34.191706 -118.500033 306 1707ft 67kts
05-Sep-18 14:43 34.212522 -118.506245 343 2321ft 82kts
05-Sep-18 14:44 34.229455 -118.522484 277 2986ft 84kts
05-Sep-18 14:45 34.233465 -118.551606 284 3706ft 101kts
05-Sep-18 14:46 34.245929 -118.586012 295 4396ft 111kts
05-Sep-18 14:47 34.259638 -118.622284 295 5075ft 118kts
05-Sep-18 14:48 34.272913 -118.657586 296 5771ft 117kts
05-Sep-18 14:49 34.286842 -118.694678 296 6483ft 121kts
05-Sep-18 14:50 34.301696 -118.734231 296 6639ft 147kts
05-Sep-18 14:51 34.318031 -118.777914 296 6526ft 131kts
05-Sep-18 14:52 34.332514 -118.816622 296 6555ft 121kts
05-Sep-18 14:53 34.346399 -118.853742 294 6522ft 119kts
05-Sep-18 14:54 34.356371 -118.888193 262 6501ft 102kts
05-Sep-18 14:55 34.353711 -118.922516 264 6493ft 106kts
05-Sep-18 14:56 34.351040 -118.959100 264 6490ft 111kts
05-Sep-18 14:57 34.348270 -118.996733 264 6441ft 114kts
05-Sep-18 14:58 34.345481 -119.034501 264 6445ft 111kts
05-Sep-18 14:59 34.342836 -119.070206 264 6467ft 111kts
05-Sep-18 15:00 34.341101 -119.105192 262 6732ft 84kts
05-Sep-18 15:01 34.337670 -119.141310 264 6457ft 117kts
05-Sep-18 15:02 34.334692 -119.179667 264 6446ft 112kts
05-Sep-18 15:03 34.331855 -119.217143 264 6446ft 111kts
05-Sep-18 15:04 34.329031 -119.254458 264 6450ft 112kts
05-Sep-18 15:05 34.326110 -119.292952 264 6448ft 116kts
05-Sep-18 15:06 34.323132 -119.332042 264 6447ft 116kts
05-Sep-18 15:07 34.320138 -119.371183 264 6447ft 116kts
05-Sep-18 15:08 34.317130 -119.410332 264 6447ft 116kts
05-Sep-18 15:08 34.314624 -119.442882 264 6447ft 116kts
05-Sep-18 15:09 34.311614 -119.482038 264 6447ft 117kts
05-Sep-18 15:10 34.309158 -119.521553 269 6298ft 127kts
05-Sep-18 15:12 34.323312 -119.557309 301 6443ft 117kts
05-Sep-18 15:13 34.337353 -119.592904 293 6436ft 117kts
05-Sep-18 15:13 34.348157 -119.622988 293 6435ft 117kts
05-Sep-18 15:14 34.361103 -119.659152 293 6433ft 117kts
05-Sep-18 15:15 34.372438 -119.690838 293 6374ft 87kts
05-Sep-18 15:16 34.382978 -119.716245 312 5907ft 114kts
05-Sep-18 15:17 34.410515 -119.745878 318 3414ft 135kts
05-Sep-18 15:18 34.427573 -119.782085 283 1381ft 122kts
05-Sep-18 15:19 34.428336 -119.813542 267 574ft 63kts
05-Sep-18 15:20 34.427898 -119.836174 267 94ft 62kts
05-Sep-18 15:21 34.427758 -119.844570 267 13ft 17kts
05-Sep-18 15:22 34.426886 -119.846337 166 13ft 0kts
05-Sep-18 15:23 34.426646 -119.846141 131 13ft 11kts
05-Sep-18 15:24 34.426630 -119.841428 88 13ft 5kts
05-Sep-18 15:25 34.426547 -119.838383 146 13ft 11kts
05-Sep-18 15:26 34.423964 -119.837497 168 13ft 8kts
05-Sep-18 15:27 34.422236 -119.836653 163 13ft 6kts
05-Sep-18 15:28 34.421721 -119.835865 52 13ft 11kts
05-Sep-18 15:29 34.421953 -119.835762 345 13ft 0kts

Navigation Log

Ident Type
Flight plan parsing failed, navigation log unavailable